Flight Track Log - Related Links

Times and Time Zones

All times are in EDT time to prevent confusion due to time zone crossing. See the C-GONN flight status page for this flight to view local times or setup timezone preferences in your user account.

Time Position Orientation Groundspeed Altitude Reporting Facility
EDT Latitude Longitude Course Direction KTS MPH feet Rate Location/Type
Wed 08:27:53 AM 45.4500 -73.7167 90° East 90 104 100  Level Montreal Center
Wed 08:28:53 AM 45.4500 -73.6833 90° East 120 138 1,800 1,350 Climbing Montreal Center
Wed 08:29:53 AM 45.4333 -73.6500 125° Southeast 140 161 2,800 1,050 Climbing Montreal Center
Wed 08:30:53 AM 45.4167 -73.5833 110° East 150 173 3,900 1,000 Climbing Montreal Center
Wed 08:31:53 AM 45.4167 -73.5333 90° East 170 196 4,800 1,050 Climbing Montreal Center
Wed 08:32:53 AM 45.4167 -73.4667 90° East 170 196 6,000 1,050 Climbing Montreal Center
Wed 08:33:53 AM 45.4167 -73.3833 90° East 170 196 6,900 950 Climbing Montreal Center
Wed 08:34:53 AM 45.4167 -73.3167 90° East 180 207 7,900 1,050 Climbing Montreal Center
Wed 08:35:53 AM 45.4000 -73.2500 110° East 180 207 9,000 1,000 Climbing Montreal Center
Wed 08:36:53 AM 45.4000 -73.1833 90° East 180 207 9,900 900 Climbing Montreal Center
Wed 08:37:53 AM 45.4000 -73.1000 90° East 190 219 10,800 850 Climbing Montreal Center
Wed 08:38:53 AM 45.4000 -73.0333 90° East 190 219 11,600 900 Climbing Montreal Center
Wed 08:39:53 AM 45.4167 -72.9333 77° East 200 230 12,600 950 Climbing Montreal Center
Wed 08:40:53 AM 45.4167 -72.8667 90° East 200 230 13,500 900 Climbing Montreal Center
Wed 08:41:53 AM 45.4167 -72.7667 90° East 210 242 14,400 850 Climbing Montreal Center
Wed 08:42:53 AM 45.4167 -72.7000 90° East 220 253 15,200 750 Climbing Montreal Center
Wed 08:43:53 AM 45.4167 -72.6000 90° East 220 253 15,900 800 Climbing Montreal Center
Wed 08:44:53 AM 45.4167 -72.5000 90° East 220 253 16,800 850 Climbing Montreal Center
Wed 08:45:53 AM 45.4167 -72.4333 90° East 230 265 17,600 700 Climbing Montreal Center
Wed 08:46:53 AM 45.4167 -72.3333 90° East 230 265 18,200 600 Climbing Montreal Center
Wed 08:47:53 AM 45.4333 -72.2500 74° East 220 253 18,800 650 Climbing Montreal Center
Wed 08:48:53 AM 45.4167 -72.1500 103° East 230 265 19,500 600 Climbing Montreal Center
Wed 08:49:53 AM 45.4167 -72.0500 90° East 230 265 20,000 600 Climbing Montreal Center
Wed 08:50:53 AM 45.4167 -71.9500 90° East 240 276 20,700 600 Climbing Montreal Center
Wed 08:51:53 AM 45.4333 -71.8667 74° East 240 276 21,200 500 Climbing Montreal Center
Wed 08:52:53 AM 45.4333 -71.7667 90° East 240 276 21,700 550 Climbing Montreal Center
Wed 08:53:53 AM 45.4167 -71.6667 103° East 250 288 22,300 500 Climbing Montreal Center
Wed 08:54:53 AM 45.4333 -71.5667 77° East 250 288 22,700 450 Climbing Montreal Center
Wed 08:55:53 AM 45.4333 -71.4833 90° East 250 288 23,200 450 Climbing Montreal Center
Wed 08:56:53 AM 45.4333 -71.3833 90° East 260 299 23,600 450 Climbing Montreal Center
Wed 08:57:53 AM 45.4333 -71.2667 90° East 260 299 24,100 400 Climbing Montreal Center
Wed 08:58:53 AM 45.4333 -71.1667 90° East 260 299 24,400 385 Climbing Montreal Center
Wed 08:59:42 AM 45.4431 -71.0972 79° East 254 292 24,800 330 Climbing Boston Center
Wed 09:00:42 AM 45.4439 -70.9906 89° East 254 292 25,000 100 Climbing Boston Center
Wed 09:01:42 AM 45.4422 -70.8783 91° East 264 304 25,000  Level Boston Center
Wed 09:02:42 AM 45.4428 -70.7600 90° East 282 325 25,000  Level Boston Center
Wed 09:03:42 AM 45.4431 -70.6417 90° East 289 333 25,000  Level Boston Center
Wed 09:04:42 AM 45.4433 -70.5203 90° East 294 338 25,000  Level Boston Center
Wed 09:05:42 AM 45.4433 -70.3992 90° East 300 345 25,000  Level Boston Center
Wed 09:06:42 AM 45.4436 -70.2986 90° East 305 351 25,000  Level Boston Center
Wed 09:07:42 AM 45.4431 -70.1683 90° East 305 351 25,000  Level Boston Center
Wed 09:08:42 AM 45.4428 -70.0469 90° East 305 351 25,000  Level Boston Center
Wed 09:09:42 AM 45.4422 -69.9228 90° East 305 351 25,000  Level Boston Center
Wed 09:10:42 AM 45.4417 -69.8017 90° East 305 351 25,000  Level Boston Center
Wed 09:11:42 AM 45.4386 -69.6744 92° East 305 351 25,000  Level Boston Center
Wed 09:12:42 AM 45.4400 -69.5531 89° East 305 351 25,000  Level Boston Center
Wed 09:13:42 AM 45.4369 -69.4319 92° East 305 351 25,000  Level Boston Center
Wed 09:14:42 AM 45.4356 -69.3078 91° East 305 351 25,000  Level Boston Center
Wed 09:15:42 AM 45.4364 -69.1864 89° East 305 351 25,000  Level Boston Center
Wed 09:16:42 AM 45.4347 -69.0533 91° East 310 357 25,000  Level Boston Center
Wed 09:17:42 AM 45.4311 -68.9294 92° East 310 357 25,000  Level Boston Center
Wed 09:18:42 AM 45.4314 -68.8081 90° East 310 357 25,000  Level Boston Center
Wed 09:19:42 AM 45.4275 -68.6839 93° East 310 357 25,000  Level Boston Center
Wed 09:20:42 AM 45.4264 -68.5864 91° East 310 357 25,000  Level Boston Center
Wed 09:21:42 AM 45.4256 -68.4417 90° East 310 357 25,000  Level Boston Center
Wed 09:22:42 AM 45.4214 -68.3206 93° East 310 357 25,000  Level Boston Center
Wed 09:23:42 AM 45.4192 -68.1964 91° East 305 351 25,000  Level Boston Center
Wed 09:24:42 AM 45.4167 -68.0725 92° East 305 351 25,000 -450 Level Boston Center
Wed 09:25:42 AM 45.4139 -67.9483 92° East 310 357 24,100 -1,250 Descending Boston Center
Wed 09:26:42 AM 45.4103 -67.8067 92° East 332 382 22,500 -1,550 Descending Boston Center
Wed 09:27:42 AM 45.4089 -67.6678 91° East 345 397 21,000 -1,500 Descending Boston Center
Wed 09:28:42 AM 45.4031 -67.5261 93° East 350 403 19,500 -1,453 Descending Boston Center
Wed 09:29:50 AM 45.3833 -67.3667 100° East 350 403 17,900 -1,453 Descending Moncton Center
Wed 09:30:50 AM 45.3667 -67.2333 100° East 340 391 16,400 -1,500 Descending Moncton Center
Wed 09:31:50 AM 45.3667 -67.1167 90° East 330 380 14,900 -1,550 Descending Moncton Center
Wed 09:32:50 AM 45.3833 -66.9667 81° East 330 380 13,300 -1,500 Descending Moncton Center
Wed 09:33:50 AM 45.3667 -66.8500 101° East 320 368 11,900 -1,350 Descending Moncton Center
Wed 09:34:50 AM 45.3333 -66.7333 112° Southeast 310 357 10,600 -1,250 Descending Moncton Center
Wed 09:35:50 AM 45.3000 -66.6333 115° Southeast 300 345 9,400 -1,200 Descending Moncton Center
Wed 09:36:50 AM 45.2667 -66.5167 112° Southeast 290 334 8,200 -1,000 Descending Moncton Center
Wed 09:37:50 AM 45.2500 -66.4167 103° East 270 311 7,400 -850 Descending Moncton Center
Wed 09:38:50 AM 45.2167 -66.3167 115° Southeast 260 299 6,500 -1,050 Descending Moncton Center
Wed 09:39:50 AM 45.2333 -66.2333 74° East 260 299 5,300 -1,150 Descending Moncton Center
Wed 09:40:50 AM 45.2333 -66.1333 90° East 260 299 4,200 -1,150 Descending Moncton Center
Wed 09:41:50 AM 45.2333 -66.0167 90° East 250 288 3,000 -800 Descending Moncton Center
Wed 09:42:50 AM 45.2333 -65.9667 90° East 190 219 2,600 -400 Descending Moncton Center

Login

Don't have an account? Register now (free) for customized features, flight alerts, and more!